sensor_id;sensor_type;location;lat;lon;timestamp;P1;durP1;ratioP1;P2;durP2;ratioP2
43793;SDS011;29414;44.798;20.366;2023-08-30T00:03:38;12.68;;;9.07;;
43793;SDS011;29414;44.798;20.366;2023-08-30T00:07:39;10.00;;;8.40;;
43793;SDS011;29414;44.798;20.366;2023-08-30T00:11:39;9.68;;;7.88;;
43793;SDS011;29414;44.798;20.366;2023-08-30T00:15:40;9.32;;;7.88;;
43793;SDS011;29414;44.798;20.366;2023-08-30T00:19:43;13.20;;;9.13;;
43793;SDS011;29414;44.798;20.366;2023-08-30T00:23:44;10.23;;;9.25;;
43793;SDS011;29414;44.798;20.366;2023-08-30T00:27:44;12.73;;;9.00;;
43793;SDS011;29414;44.798;20.366;2023-08-30T00:31:44;14.50;;;9.93;;
43793;SDS011;29414;44.798;20.366;2023-08-30T00:35:45;12.95;;;8.95;;
43793;SDS011;29414;44.798;20.366;2023-08-30T00:39:45;14.73;;;9.70;;
43793;SDS011;29414;44.798;20.366;2023-08-30T00:43:45;10.07;;;8.75;;
43793;SDS011;29414;44.798;20.366;2023-08-30T00:47:45;11.54;;;9.02;;
43793;SDS011;29414;44.798;20.366;2023-08-30T00:51:46;15.88;;;10.05;;
43793;SDS011;29414;44.798;20.366;2023-08-30T00:55:46;14.07;;;8.80;;
43793;SDS011;29414;44.798;20.366;2023-08-30T00:59:46;14.77;;;10.35;;
43793;SDS011;29414;44.798;20.366;2023-08-30T01:03:47;12.13;;;10.20;;
43793;SDS011;29414;44.798;20.366;2023-08-30T01:07:48;11.43;;;9.45;;
43793;SDS011;29414;44.798;20.366;2023-08-30T01:12:11;9.77;;;8.50;;
43793;SDS011;29414;44.798;20.366;2023-08-30T01:16:10;9.93;;;8.93;;
43793;SDS011;29414;44.798;20.366;2023-08-30T01:20:11;12.93;;;9.52;;
43793;SDS011;29414;44.798;20.366;2023-08-30T01:24:27;10.93;;;9.30;;
43793;SDS011;29414;44.798;20.366;2023-08-30T01:28:29;12.32;;;9.20;;
43793;SDS011;29414;44.798;20.366;2023-08-30T01:32:30;10.52;;;9.50;;
43793;SDS011;29414;44.798;20.366;2023-08-30T01:36:31;12.27;;;9.73;;
43793;SDS011;29414;44.798;20.366;2023-08-30T01:40:36;13.75;;;9.20;;
43793;SDS011;29414;44.798;20.366;2023-08-30T01:44:37;9.93;;;8.68;;
43793;SDS011;29414;44.798;20.366;2023-08-30T01:48:38;10.98;;;9.35;;
43793;SDS011;29414;44.798;20.366;2023-08-30T01:52:39;12.27;;;8.93;;
43793;SDS011;29414;44.798;20.366;2023-08-30T01:56:40;12.18;;;9.20;;
43793;SDS011;29414;44.798;20.366;2023-08-30T02:00:40;13.73;;;9.95;;
43793;SDS011;29414;44.798;20.366;2023-08-30T02:04:40;13.35;;;10.40;;
43793;SDS011;29414;44.798;20.366;2023-08-30T02:08:41;13.98;;;10.32;;
43793;SDS011;29414;44.798;20.366;2023-08-30T02:12:48;10.75;;;9.48;;
43793;SDS011;29414;44.798;20.366;2023-08-30T02:16:49;12.23;;;11.02;;
43793;SDS011;29414;44.798;20.366;2023-08-30T02:20:49;11.88;;;9.73;;
43793;SDS011;29414;44.798;20.366;2023-08-30T02:24:49;13.52;;;11.57;;
43793;SDS011;29414;44.798;20.366;2023-08-30T02:28:50;18.63;;;10.80;;
43793;SDS011;29414;44.798;20.366;2023-08-30T02:32:50;13.15;;;10.38;;
43793;SDS011;29414;44.798;20.366;2023-08-30T02:36:50;11.48;;;10.38;;
43793;SDS011;29414;44.798;20.366;2023-08-30T02:40:50;11.52;;;10.38;;
43793;SDS011;29414;44.798;20.366;2023-08-30T02:44:51;13.30;;;10.18;;
43793;SDS011;29414;44.798;20.366;2023-08-30T02:48:51;10.23;;;9.23;;
43793;SDS011;29414;44.798;20.366;2023-08-30T02:52:52;16.54;;;9.96;;
43793;SDS011;29414;44.798;20.366;2023-08-30T02:56:53;12.40;;;10.48;;
43793;SDS011;29414;44.798;20.366;2023-08-30T03:00:53;12.10;;;9.82;;
43793;SDS011;29414;44.798;20.366;2023-08-30T03:04:54;11.25;;;9.45;;
43793;SDS011;29414;44.798;20.366;2023-08-30T03:08:54;11.57;;;10.27;;
43793;SDS011;29414;44.798;20.366;2023-08-30T03:12:54;13.35;;;9.90;;
43793;SDS011;29414;44.798;20.366;2023-08-30T03:16:54;11.73;;;10.52;;
43793;SDS011;29414;44.798;20.366;2023-08-30T03:21:01;12.95;;;10.13;;
43793;SDS011;29414;44.798;20.366;2023-08-30T03:25:04;14.07;;;10.65;;
43793;SDS011;29414;44.798;20.366;2023-08-30T03:29:05;14.32;;;10.75;;
43793;SDS011;29414;44.798;20.366;2023-08-30T03:33:05;12.82;;;10.32;;
43793;SDS011;29414;44.798;20.366;2023-08-30T03:37:06;11.85;;;10.05;;
43793;SDS011;29414;44.798;20.366;2023-08-30T03:41:06;15.02;;;11.05;;
43793;SDS011;29414;44.798;20.366;2023-08-30T03:45:07;12.95;;;11.00;;
43793;SDS011;29414;44.798;20.366;2023-08-30T03:49:07;16.40;;;12.40;;
43793;SDS011;29414;44.798;20.366;2023-08-30T03:53:07;11.93;;;10.75;;
43793;SDS011;29414;44.798;20.366;2023-08-30T03:57:08;12.95;;;10.48;;
43793;SDS011;29414;44.798;20.366;2023-08-30T04:01:08;13.75;;;11.32;;
43793;SDS011;29414;44.798;20.366;2023-08-30T04:05:08;11.43;;;10.02;;
43793;SDS011;29414;44.798;20.366;2023-08-30T04:09:09;11.95;;;10.73;;
43793;SDS011;29414;44.798;20.366;2023-08-30T04:13:10;11.10;;;9.98;;
43793;SDS011;29414;44.798;20.366;2023-08-30T04:17:10;12.20;;;10.55;;
43793;SDS011;29414;44.798;20.366;2023-08-30T04:21:10;15.73;;;11.27;;
43793;SDS011;29414;44.798;20.366;2023-08-30T04:25:11;13.15;;;9.60;;
43793;SDS011;29414;44.798;20.366;2023-08-30T04:29:11;12.23;;;10.98;;
43793;SDS011;29414;44.798;20.366;2023-08-30T04:33:11;14.26;;;11.84;;
43793;SDS011;29414;44.798;20.366;2023-08-30T04:37:11;11.75;;;9.73;;
43793;SDS011;29414;44.798;20.366;2023-08-30T04:41:12;10.95;;;9.35;;
43793;SDS011;29414;44.798;20.366;2023-08-30T04:45:12;10.98;;;9.07;;
43793;SDS011;29414;44.798;20.366;2023-08-30T04:49:12;13.23;;;9.23;;
43793;SDS011;29414;44.798;20.366;2023-08-30T04:53:13;14.63;;;11.48;;
43793;SDS011;29414;44.798;20.366;2023-08-30T04:57:13;13.88;;;10.48;;
43793;SDS011;29414;44.798;20.366;2023-08-30T05:01:14;15.50;;;10.38;;
43793;SDS011;29414;44.798;20.366;2023-08-30T05:05:15;14.63;;;9.20;;
43793;SDS011;29414;44.798;20.366;2023-08-30T05:09:16;14.25;;;9.90;;
43793;SDS011;29414;44.798;20.366;2023-08-30T05:13:16;14.82;;;8.90;;
43793;SDS011;29414;44.798;20.366;2023-08-30T05:17:16;11.10;;;9.93;;
43793;SDS011;29414;44.798;20.366;2023-08-30T05:21:17;15.05;;;10.13;;
43793;SDS011;29414;44.798;20.366;2023-08-30T05:25:17;14.93;;;11.75;;
43793;SDS011;29414;44.798;20.366;2023-08-30T05:29:18;20.50;;;12.80;;
43793;SDS011;29414;44.798;20.366;2023-08-30T05:33:18;18.63;;;12.52;;
43793;SDS011;29414;44.798;20.366;2023-08-30T05:37:18;15.22;;;12.06;;
43793;SDS011;29414;44.798;20.366;2023-08-30T05:41:18;14.13;;;10.88;;
43793;SDS011;29414;44.798;20.366;2023-08-30T05:45:19;15.60;;;11.72;;
43793;SDS011;29414;44.798;20.366;2023-08-30T05:49:19;14.40;;;12.55;;
43793;SDS011;29414;44.798;20.366;2023-08-30T05:53:19;15.68;;;13.95;;
43793;SDS011;29414;44.798;20.366;2023-08-30T05:57:20;19.67;;;13.68;;
43793;SDS011;29414;44.798;20.366;2023-08-30T06:01:22;19.40;;;15.65;;
43793;SDS011;29414;44.798;20.366;2023-08-30T06:05:22;23.75;;;15.73;;
43793;SDS011;29414;44.798;20.366;2023-08-30T06:09:23;17.08;;;15.30;;
43793;SDS011;29414;44.798;20.366;2023-08-30T06:13:23;17.48;;;14.43;;
43793;SDS011;29414;44.798;20.366;2023-08-30T06:17:23;21.88;;;14.68;;
43793;SDS011;29414;44.798;20.366;2023-08-30T06:21:24;20.38;;;15.75;;
43793;SDS011;29414;44.798;20.366;2023-08-30T06:25:24;23.73;;;13.55;;
43793;SDS011;29414;44.798;20.366;2023-08-30T06:29:25;27.40;;;15.18;;
43793;SDS011;29414;44.798;20.366;2023-08-30T06:33:25;24.60;;;12.73;;
43793;SDS011;29414;44.798;20.366;2023-08-30T06:37:25;16.33;;;14.13;;
43793;SDS011;29414;44.798;20.366;2023-08-30T06:41:26;12.85;;;11.15;;
43793;SDS011;29414;44.798;20.366;2023-08-30T06:45:26;21.88;;;11.48;;
43793;SDS011;29414;44.798;20.366;2023-08-30T06:49:28;19.08;;;11.90;;
43793;SDS011;29414;44.798;20.366;2023-08-30T06:53:28;15.48;;;11.02;;
43793;SDS011;29414;44.798;20.366;2023-08-30T06:57:28;13.60;;;10.90;;
43793;SDS011;29414;44.798;20.366;2023-08-30T07:01:29;13.80;;;12.13;;
43793;SDS011;29414;44.798;20.366;2023-08-30T07:05:29;14.38;;;10.52;;
43793;SDS011;29414;44.798;20.366;2023-08-30T07:09:30;24.63;;;13.77;;
43793;SDS011;29414;44.798;20.366;2023-08-30T07:13:32;33.03;;;13.32;;
43793;SDS011;29414;44.798;20.366;2023-08-30T07:17:32;13.35;;;10.88;;
43793;SDS011;29414;44.798;20.366;2023-08-30T07:21:32;16.50;;;12.88;;
43793;SDS011;29414;44.798;20.366;2023-08-30T07:25:36;14.25;;;11.25;;
43793;SDS011;29414;44.798;20.366;2023-08-30T07:29:36;31.40;;;13.23;;
43793;SDS011;29414;44.798;20.366;2023-08-30T07:33:37;19.10;;;12.23;;
43793;SDS011;29414;44.798;20.366;2023-08-30T07:37:37;23.55;;;13.18;;
43793;SDS011;29414;44.798;20.366;2023-08-30T07:41:37;12.57;;;11.23;;
43793;SDS011;29414;44.798;20.366;2023-08-30T07:45:38;18.75;;;10.48;;
43793;SDS011;29414;44.798;20.366;2023-08-30T07:49:38;19.55;;;9.32;;
43793;SDS011;29414;44.798;20.366;2023-08-30T07:53:38;14.57;;;10.05;;
43793;SDS011;29414;44.798;20.366;2023-08-30T07:57:38;17.55;;;10.57;;
43793;SDS011;29414;44.798;20.366;2023-08-30T08:01:39;12.88;;;10.82;;
43793;SDS011;29414;44.798;20.366;2023-08-30T08:05:40;26.65;;;11.07;;
43793;SDS011;29414;44.798;20.366;2023-08-30T08:09:40;13.05;;;9.13;;
43793;SDS011;29414;44.798;20.366;2023-08-30T08:13:41;20.67;;;9.35;;
43793;SDS011;29414;44.798;20.366;2023-08-30T08:17:42;15.20;;;9.77;;
43793;SDS011;29414;44.798;20.366;2023-08-30T08:21:43;16.77;;;8.95;;
43793;SDS011;29414;44.798;20.366;2023-08-30T08:25:43;14.45;;;7.68;;
43793;SDS011;29414;44.798;20.366;2023-08-30T08:29:43;12.42;;;7.64;;
43793;SDS011;29414;44.798;20.366;2023-08-30T08:33:43;11.02;;;7.45;;
43793;SDS011;29414;44.798;20.366;2023-08-30T08:37:44;15.65;;;7.53;;
43793;SDS011;29414;44.798;20.366;2023-08-30T08:41:44;17.30;;;6.78;;
43793;SDS011;29414;44.798;20.366;2023-08-30T08:45:45;6.20;;;3.60;;
43793;SDS011;29414;44.798;20.366;2023-08-30T08:49:45;7.25;;;3.72;;
43793;SDS011;29414;44.798;20.366;2023-08-30T08:53:46;5.85;;;4.75;;
43793;SDS011;29414;44.798;20.366;2023-08-30T08:57:47;6.20;;;4.13;;
43793;SDS011;29414;44.798;20.366;2023-08-30T09:01:48;4.10;;;3.00;;
43793;SDS011;29414;44.798;20.366;2023-08-30T09:05:48;6.70;;;3.50;;
43793;SDS011;29414;44.798;20.366;2023-08-30T09:09:49;6.10;;;3.45;;
43793;SDS011;29414;44.798;20.366;2023-08-30T09:13:49;13.80;;;3.95;;
43793;SDS011;29414;44.798;20.366;2023-08-30T09:17:49;5.13;;;2.78;;
43793;SDS011;29414;44.798;20.366;2023-08-30T09:21:59;7.95;;;4.80;;
43793;SDS011;29414;44.798;20.366;2023-08-30T09:26:00;11.18;;;3.78;;
43793;SDS011;29414;44.798;20.366;2023-08-30T09:30:04;4.35;;;3.42;;
43793;SDS011;29414;44.798;20.366;2023-08-30T09:38:05;8.20;;;4.75;;
43793;SDS011;29414;44.798;20.366;2023-08-30T09:42:05;10.77;;;4.80;;
43793;SDS011;29414;44.798;20.366;2023-08-30T09:46:06;7.88;;;4.55;;
43793;SDS011;29414;44.798;20.366;2023-08-30T09:50:06;8.00;;;5.18;;
43793;SDS011;29414;44.798;20.366;2023-08-30T09:54:06;9.63;;;4.63;;
43793;SDS011;29414;44.798;20.366;2023-08-30T09:58:10;9.07;;;4.07;;
43793;SDS011;29414;44.798;20.366;2023-08-30T10:02:10;10.50;;;4.05;;
43793;SDS011;29414;44.798;20.366;2023-08-30T10:06:10;8.50;;;5.03;;
43793;SDS011;29414;44.798;20.366;2023-08-30T10:10:13;7.55;;;3.90;;
43793;SDS011;29414;44.798;20.366;2023-08-30T10:14:14;7.55;;;4.53;;
43793;SDS011;29414;44.798;20.366;2023-08-30T10:18:15;9.65;;;4.07;;
43793;SDS011;29414;44.798;20.366;2023-08-30T10:22:18;7.20;;;4.72;;
43793;SDS011;29414;44.798;20.366;2023-08-30T10:26:20;8.30;;;4.22;;
43793;SDS011;29414;44.798;20.366;2023-08-30T10:30:21;7.57;;;4.35;;
43793;SDS011;29414;44.798;20.366;2023-08-30T10:34:21;9.52;;;5.57;;
43793;SDS011;29414;44.798;20.366;2023-08-30T10:38:25;10.40;;;6.65;;
43793;SDS011;29414;44.798;20.366;2023-08-30T10:42:27;5.32;;;4.32;;
43793;SDS011;29414;44.798;20.366;2023-08-30T10:46:31;8.52;;;4.78;;
43793;SDS011;29414;44.798;20.366;2023-08-30T10:50:33;7.57;;;4.75;;
43793;SDS011;29414;44.798;20.366;2023-08-30T10:54:37;8.10;;;4.28;;
43793;SDS011;29414;44.798;20.366;2023-08-30T10:58:40;7.05;;;5.00;;
43793;SDS011;29414;44.798;20.366;2023-08-30T11:02:50;16.88;;;15.07;;
43793;SDS011;29414;44.798;20.366;2023-08-30T11:06:50;8.15;;;4.55;;
43793;SDS011;29414;44.798;20.366;2023-08-30T11:10:59;4.63;;;3.53;;
43793;SDS011;29414;44.798;20.366;2023-08-30T11:15:00;10.13;;;3.83;;
43793;SDS011;29414;44.798;20.366;2023-08-30T11:19:03;5.82;;;3.78;;
43793;SDS011;29414;44.798;20.366;2023-08-30T11:23:04;6.70;;;3.55;;
43793;SDS011;29414;44.798;20.366;2023-08-30T11:27:05;5.35;;;3.42;;
43793;SDS011;29414;44.798;20.366;2023-08-30T11:31:06;6.55;;;3.90;;
43793;SDS011;29414;44.798;20.366;2023-08-30T11:35:07;6.32;;;3.08;;
43793;SDS011;29414;44.798;20.366;2023-08-30T11:39:08;8.38;;;3.25;;
43793;SDS011;29414;44.798;20.366;2023-08-30T11:43:09;8.60;;;4.07;;
43793;SDS011;29414;44.798;20.366;2023-08-30T11:47:09;7.78;;;3.60;;
43793;SDS011;29414;44.798;20.366;2023-08-30T11:51:10;6.80;;;3.05;;
43793;SDS011;29414;44.798;20.366;2023-08-30T11:55:11;6.90;;;2.72;;
43793;SDS011;29414;44.798;20.366;2023-08-30T11:59:19;5.10;;;3.35;;
43793;SDS011;29414;44.798;20.366;2023-08-30T12:03:20;6.30;;;3.30;;
43793;SDS011;29414;44.798;20.366;2023-08-30T12:07:21;3.50;;;2.53;;
43793;SDS011;29414;44.798;20.366;2023-08-30T12:11:22;2.97;;;2.63;;
43793;SDS011;29414;44.798;20.366;2023-08-30T12:15:23;8.20;;;3.43;;
43793;SDS011;29414;44.798;20.366;2023-08-30T12:19:27;3.35;;;2.55;;
43793;SDS011;29414;44.798;20.366;2023-08-30T12:23:29;3.42;;;2.70;;
43793;SDS011;29414;44.798;20.366;2023-08-30T12:27:29;6.90;;;2.80;;
43793;SDS011;29414;44.798;20.366;2023-08-30T12:31:30;3.60;;;2.60;;
43793;SDS011;29414;44.798;20.366;2023-08-30T12:35:31;3.25;;;2.95;;
43793;SDS011;29414;44.798;20.366;2023-08-30T12:39:31;3.90;;;2.50;;
43793;SDS011;29414;44.798;20.366;2023-08-30T12:43:31;4.13;;;3.27;;
43793;SDS011;29414;44.798;20.366;2023-08-30T12:47:32;5.57;;;2.95;;
43793;SDS011;29414;44.798;20.366;2023-08-30T12:51:32;6.93;;;3.30;;
43793;SDS011;29414;44.798;20.366;2023-08-30T12:55:33;4.13;;;3.23;;
43793;SDS011;29414;44.798;20.366;2023-08-30T12:59:34;5.88;;;2.85;;
43793;SDS011;29414;44.798;20.366;2023-08-30T13:03:34;3.67;;;2.13;;
43793;SDS011;29414;44.798;20.366;2023-08-30T13:07:34;4.40;;;2.60;;
43793;SDS011;29414;44.798;20.366;2023-08-30T13:11:35;4.03;;;3.58;;
43793;SDS011;29414;44.798;20.366;2023-08-30T13:15:35;2.53;;;2.33;;
43793;SDS011;29414;44.798;20.366;2023-08-30T13:19:35;3.30;;;2.53;;
43793;SDS011;29414;44.798;20.366;2023-08-30T13:23:36;3.78;;;2.63;;
43793;SDS011;29414;44.798;20.366;2023-08-30T13:27:36;3.37;;;3.10;;
43793;SDS011;29414;44.798;20.366;2023-08-30T13:31:36;6.45;;;3.83;;
43793;SDS011;29414;44.798;20.366;2023-08-30T13:35:38;5.28;;;3.97;;
43793;SDS011;29414;44.798;20.366;2023-08-30T13:39:39;6.68;;;3.80;;
43793;SDS011;29414;44.798;20.366;2023-08-30T13:43:39;4.60;;;3.22;;
43793;SDS011;29414;44.798;20.366;2023-08-30T13:47:40;4.45;;;3.63;;
43793;SDS011;29414;44.798;20.366;2023-08-30T13:51:40;4.45;;;3.50;;
43793;SDS011;29414;44.798;20.366;2023-08-30T13:55:44;7.88;;;4.55;;
43793;SDS011;29414;44.798;20.366;2023-08-30T13:59:44;5.32;;;4.18;;
43793;SDS011;29414;44.798;20.366;2023-08-30T14:03:44;5.33;;;4.27;;
43793;SDS011;29414;44.798;20.366;2023-08-30T14:07:47;7.05;;;3.92;;
43793;SDS011;29414;44.798;20.366;2023-08-30T14:11:47;5.05;;;3.20;;
43793;SDS011;29414;44.798;20.366;2023-08-30T14:15:48;5.75;;;3.95;;
43793;SDS011;29414;44.798;20.366;2023-08-30T14:19:48;4.72;;;3.67;;
43793;SDS011;29414;44.798;20.366;2023-08-30T14:23:48;4.43;;;4.03;;
43793;SDS011;29414;44.798;20.366;2023-08-30T14:27:49;5.78;;;3.63;;
43793;SDS011;29414;44.798;20.366;2023-08-30T14:31:49;4.10;;;3.40;;
43793;SDS011;29414;44.798;20.366;2023-08-30T14:35:49;4.57;;;3.80;;
43793;SDS011;29414;44.798;20.366;2023-08-30T14:39:52;6.87;;;3.63;;
43793;SDS011;29414;44.798;20.366;2023-08-30T14:43:52;4.05;;;3.10;;
43793;SDS011;29414;44.798;20.366;2023-08-30T14:47:53;4.63;;;3.37;;
43793;SDS011;29414;44.798;20.366;2023-08-30T14:51:53;5.13;;;3.67;;
43793;SDS011;29414;44.798;20.366;2023-08-30T14:55:53;5.65;;;2.90;;
43793;SDS011;29414;44.798;20.366;2023-08-30T14:59:55;6.97;;;3.95;;
43793;SDS011;29414;44.798;20.366;2023-08-30T15:03:55;6.15;;;3.10;;
43793;SDS011;29414;44.798;20.366;2023-08-30T15:07:55;4.63;;;3.25;;
43793;SDS011;29414;44.798;20.366;2023-08-30T15:11:56;5.43;;;3.55;;
43793;SDS011;29414;44.798;20.366;2023-08-30T15:15:58;5.45;;;3.53;;
43793;SDS011;29414;44.798;20.366;2023-08-30T15:19:58;5.10;;;4.20;;
43793;SDS011;29414;44.798;20.366;2023-08-30T15:23:59;5.63;;;3.27;;
43793;SDS011;29414;44.798;20.366;2023-08-30T15:27:59;3.63;;;3.03;;
43793;SDS011;29414;44.798;20.366;2023-08-30T15:31:59;4.47;;;3.60;;
43793;SDS011;29414;44.798;20.366;2023-08-30T15:36:00;4.40;;;2.83;;
43793;SDS011;29414;44.798;20.366;2023-08-30T15:40:00;4.05;;;2.60;;
43793;SDS011;29414;44.798;20.366;2023-08-30T15:44:04;17.85;;;3.53;;
43793;SDS011;29414;44.798;20.366;2023-08-30T15:48:06;3.08;;;2.17;;
43793;SDS011;29414;44.798;20.366;2023-08-30T15:52:06;3.83;;;2.20;;
43793;SDS011;29414;44.798;20.366;2023-08-30T15:56:06;2.42;;;2.22;;
43793;SDS011;29414;44.798;20.366;2023-08-30T16:00:07;2.60;;;2.05;;
43793;SDS011;29414;44.798;20.366;2023-08-30T16:04:07;3.08;;;1.98;;
43793;SDS011;29414;44.798;20.366;2023-08-30T16:08:08;3.22;;;2.20;;
43793;SDS011;29414;44.798;20.366;2023-08-30T16:12:08;2.65;;;2.42;;
43793;SDS011;29414;44.798;20.366;2023-08-30T16:16:09;5.15;;;2.78;;
43793;SDS011;29414;44.798;20.366;2023-08-30T16:20:09;3.30;;;2.78;;
43793;SDS011;29414;44.798;20.366;2023-08-30T16:24:10;4.75;;;3.17;;
43793;SDS011;29414;44.798;20.366;2023-08-30T16:28:10;2.72;;;2.33;;
43793;SDS011;29414;44.798;20.366;2023-08-30T16:32:11;3.30;;;2.30;;
43793;SDS011;29414;44.798;20.366;2023-08-30T16:36:11;9.50;;;2.85;;
43793;SDS011;29414;44.798;20.366;2023-08-30T16:40:11;4.13;;;2.70;;
43793;SDS011;29414;44.798;20.366;2023-08-30T16:44:11;3.75;;;2.30;;
43793;SDS011;29414;44.798;20.366;2023-08-30T16:48:12;4.47;;;2.78;;
43793;SDS011;29414;44.798;20.366;2023-08-30T16:52:12;4.18;;;2.65;;
43793;SDS011;29414;44.798;20.366;2023-08-30T16:56:13;3.03;;;2.40;;
43793;SDS011;29414;44.798;20.366;2023-08-30T17:00:15;5.00;;;3.03;;
43793;SDS011;29414;44.798;20.366;2023-08-30T17:04:18;3.67;;;3.10;;
43793;SDS011;29414;44.798;20.366;2023-08-30T17:08:18;7.30;;;4.00;;
43793;SDS011;29414;44.798;20.366;2023-08-30T17:12:19;3.90;;;3.17;;
43793;SDS011;29414;44.798;20.366;2023-08-30T17:16:19;6.47;;;2.83;;
43793;SDS011;29414;44.798;20.366;2023-08-30T17:20:19;3.42;;;3.13;;
43793;SDS011;29414;44.798;20.366;2023-08-30T17:24:19;5.32;;;3.30;;
43793;SDS011;29414;44.798;20.366;2023-08-30T17:28:20;4.63;;;4.20;;
43793;SDS011;29414;44.798;20.366;2023-08-30T17:32:20;5.82;;;3.80;;
43793;SDS011;29414;44.798;20.366;2023-08-30T17:36:21;6.05;;;4.40;;
43793;SDS011;29414;44.798;20.366;2023-08-30T17:40:21;4.70;;;3.78;;
43793;SDS011;29414;44.798;20.366;2023-08-30T17:44:21;5.47;;;3.63;;
43793;SDS011;29414;44.798;20.366;2023-08-30T17:48:21;3.90;;;3.60;;
43793;SDS011;29414;44.798;20.366;2023-08-30T17:52:22;4.32;;;3.63;;
43793;SDS011;29414;44.798;20.366;2023-08-30T17:56:22;3.90;;;3.60;;
43793;SDS011;29414;44.798;20.366;2023-08-30T18:00:24;5.07;;;3.90;;
43793;SDS011;29414;44.798;20.366;2023-08-30T18:04:24;4.75;;;3.28;;
43793;SDS011;29414;44.798;20.366;2023-08-30T18:08:25;5.47;;;4.10;;
43793;SDS011;29414;44.798;20.366;2023-08-30T18:12:25;6.40;;;4.53;;
43793;SDS011;29414;44.798;20.366;2023-08-30T18:16:25;5.30;;;4.47;;
43793;SDS011;29414;44.798;20.366;2023-08-30T18:20:26;6.15;;;4.35;;
43793;SDS011;29414;44.798;20.366;2023-08-30T18:24:26;6.38;;;4.65;;
43793;SDS011;29414;44.798;20.366;2023-08-30T18:28:26;6.50;;;5.05;;
43793;SDS011;29414;44.798;20.366;2023-08-30T18:32:26;5.97;;;4.50;;
43793;SDS011;29414;44.798;20.366;2023-08-30T18:36:28;5.78;;;5.05;;
43793;SDS011;29414;44.798;20.366;2023-08-30T18:40:28;6.93;;;5.15;;
43793;SDS011;29414;44.798;20.366;2023-08-30T18:44:29;10.23;;;5.13;;
43793;SDS011;29414;44.798;20.366;2023-08-30T18:48:33;6.00;;;4.83;;
43793;SDS011;29414;44.798;20.366;2023-08-30T18:52:33;5.20;;;4.70;;
43793;SDS011;29414;44.798;20.366;2023-08-30T18:56:33;5.60;;;4.82;;
43793;SDS011;29414;44.798;20.366;2023-08-30T19:00:34;6.95;;;5.25;;
43793;SDS011;29414;44.798;20.366;2023-08-30T19:04:34;6.20;;;5.13;;
43793;SDS011;29414;44.798;20.366;2023-08-30T19:08:35;5.18;;;4.68;;
43793;SDS011;29414;44.798;20.366;2023-08-30T19:12:35;9.98;;;5.05;;
43793;SDS011;29414;44.798;20.366;2023-08-30T19:16:35;5.22;;;4.65;;
43793;SDS011;29414;44.798;20.366;2023-08-30T19:20:36;8.00;;;5.97;;
43793;SDS011;29414;44.798;20.366;2023-08-30T19:24:36;6.30;;;4.88;;
43793;SDS011;29414;44.798;20.366;2023-08-30T19:28:37;5.43;;;4.60;;
43793;SDS011;29414;44.798;20.366;2023-08-30T19:32:40;7.03;;;4.70;;
43793;SDS011;29414;44.798;20.366;2023-08-30T19:36:42;5.45;;;4.35;;
43793;SDS011;29414;44.798;20.366;2023-08-30T19:40:52;9.48;;;6.25;;
43793;SDS011;29414;44.798;20.366;2023-08-30T19:44:52;11.95;;;4.80;;
43793;SDS011;29414;44.798;20.366;2023-08-30T19:52:57;7.03;;;1.63;;
43793;SDS011;29414;44.798;20.366;2023-08-30T19:57:03;9.40;;;1.58;;
43793;SDS011;29414;44.798;20.366;2023-08-30T20:01:04;2.25;;;1.35;;
43793;SDS011;29414;44.798;20.366;2023-08-30T20:05:05;5.97;;;1.58;;
43793;SDS011;29414;44.798;20.366;2023-08-30T20:09:05;9.75;;;2.13;;
43793;SDS011;29414;44.798;20.366;2023-08-30T20:13:05;6.90;;;2.00;;
43793;SDS011;29414;44.798;20.366;2023-08-30T20:17:06;8.45;;;2.40;;
43793;SDS011;29414;44.798;20.366;2023-08-30T20:21:11;8.77;;;3.55;;
43793;SDS011;29414;44.798;20.366;2023-08-30T20:25:11;6.78;;;2.42;;
43793;SDS011;29414;44.798;20.366;2023-08-30T20:29:14;6.13;;;2.47;;
43793;SDS011;29414;44.798;20.366;2023-08-30T20:33:14;4.63;;;2.05;;
43793;SDS011;29414;44.798;20.366;2023-08-30T20:37:14;4.88;;;2.15;;
43793;SDS011;29414;44.798;20.366;2023-08-30T20:41:14;5.57;;;2.03;;
43793;SDS011;29414;44.798;20.366;2023-08-30T20:45:15;5.05;;;2.10;;
43793;SDS011;29414;44.798;20.366;2023-08-30T20:49:15;6.10;;;2.35;;
43793;SDS011;29414;44.798;20.366;2023-08-30T20:53:15;4.25;;;2.05;;
43793;SDS011;29414;44.798;20.366;2023-08-30T20:57:16;5.05;;;1.60;;
43793;SDS011;29414;44.798;20.366;2023-08-30T21:01:16;7.32;;;1.58;;
43793;SDS011;29414;44.798;20.366;2023-08-30T21:05:16;3.75;;;1.27;;
43793;SDS011;29414;44.798;20.366;2023-08-30T21:09:16;3.35;;;1.25;;
43793;SDS011;29414;44.798;20.366;2023-08-30T21:13:17;1.92;;;0.70;;
43793;SDS011;29414;44.798;20.366;2023-08-30T21:17:17;3.25;;;0.80;;
43793;SDS011;29414;44.798;20.366;2023-08-30T21:21:17;6.13;;;1.33;;
43793;SDS011;29414;44.798;20.366;2023-08-30T21:25:18;8.93;;;2.50;;
43793;SDS011;29414;44.798;20.366;2023-08-30T21:29:18;3.83;;;2.00;;
43793;SDS011;29414;44.798;20.366;2023-08-30T21:33:20;3.83;;;1.77;;
43793;SDS011;29414;44.798;20.366;2023-08-30T21:37:22;6.97;;;1.90;;
43793;SDS011;29414;44.798;20.366;2023-08-30T21:41:22;3.22;;;1.08;;
43793;SDS011;29414;44.798;20.366;2023-08-30T21:45:23;2.03;;;1.40;;
43793;SDS011;29414;44.798;20.366;2023-08-30T21:49:23;4.85;;;1.17;;
43793;SDS011;29414;44.798;20.366;2023-08-30T21:53:23;2.25;;;1.45;;
43793;SDS011;29414;44.798;20.366;2023-08-30T21:57:24;2.28;;;1.38;;
43793;SDS011;29414;44.798;20.366;2023-08-30T22:01:24;2.53;;;1.23;;
43793;SDS011;29414;44.798;20.366;2023-08-30T22:05:25;2.60;;;1.42;;
43793;SDS011;29414;44.798;20.366;2023-08-30T22:09:25;4.88;;;2.00;;
43793;SDS011;29414;44.798;20.366;2023-08-30T22:13:25;4.80;;;1.60;;
43793;SDS011;29414;44.798;20.366;2023-08-30T22:17:28;6.65;;;1.52;;
43793;SDS011;29414;44.798;20.366;2023-08-30T22:21:29;3.20;;;1.67;;
43793;SDS011;29414;44.798;20.366;2023-08-30T22:25:29;4.50;;;1.95;;
43793;SDS011;29414;44.798;20.366;2023-08-30T22:29:29;2.50;;;2.10;;
43793;SDS011;29414;44.798;20.366;2023-08-30T22:33:30;3.65;;;1.83;;
43793;SDS011;29414;44.798;20.366;2023-08-30T22:37:36;3.33;;;1.52;;
43793;SDS011;29414;44.798;20.366;2023-08-30T22:41:37;4.55;;;2.08;;
43793;SDS011;29414;44.798;20.366;2023-08-30T22:45:37;5.78;;;2.70;;
43793;SDS011;29414;44.798;20.366;2023-08-30T22:49:38;4.68;;;1.83;;
43793;SDS011;29414;44.798;20.366;2023-08-30T22:53:38;2.47;;;1.60;;
43793;SDS011;29414;44.798;20.366;2023-08-30T22:57:40;7.90;;;2.28;;
43793;SDS011;29414;44.798;20.366;2023-08-30T23:01:41;3.42;;;1.80;;
43793;SDS011;29414;44.798;20.366;2023-08-30T23:05:41;4.45;;;2.30;;
43793;SDS011;29414;44.798;20.366;2023-08-30T23:09:41;3.34;;;2.46;;
43793;SDS011;29414;44.798;20.366;2023-08-30T23:13:41;6.45;;;2.50;;
43793;SDS011;29414;44.798;20.366;2023-08-30T23:17:47;3.63;;;3.20;;
43793;SDS011;29414;44.798;20.366;2023-08-30T23:21:47;4.50;;;2.58;;
43793;SDS011;29414;44.798;20.366;2023-08-30T23:25:47;5.82;;;2.33;;
43793;SDS011;29414;44.798;20.366;2023-08-30T23:29:47;6.30;;;3.40;;
43793;SDS011;29414;44.798;20.366;2023-08-30T23:33:48;5.13;;;2.63;;
43793;SDS011;29414;44.798;20.366;2023-08-30T23:37:48;5.43;;;3.00;;
43793;SDS011;29414;44.798;20.366;2023-08-30T23:41:48;5.57;;;3.33;;
43793;SDS011;29414;44.798;20.366;2023-08-30T23:45:49;13.82;;;4.32;;